createdAt,value
2022-08-08T13:27:29.943Z,62112.00
2022-08-08T13:29:28.680Z,59456.00
2022-08-08T13:31:01.808Z,18336.00
2022-08-08T13:32:32.381Z,9176.00
2022-08-08T13:34:00.511Z,8652.00
2022-08-08T13:35:38.709Z,9120.00
2022-08-08T13:38:04.524Z,43328.00
2022-08-08T13:39:02.023Z,57184.00
2022-08-08T13:41:01.204Z,62400.00
2022-08-08T13:42:32.006Z,60096.00
2022-08-08T13:44:01.425Z,63264.00
2022-08-08T13:46:28.564Z,64224.00
2022-08-08T13:47:55.504Z,58624.00
2022-08-08T13:50:38.698Z,59648.00
2022-08-08T13:51:33.848Z,58752.00
2022-08-08T13:55:44.019Z,62464.00
2022-08-08T13:58:00.785Z,62912.00
2022-08-08T14:00:14.143Z,59680.00
2022-08-08T14:03:26.701Z,55040.00
2022-08-08T14:04:38.066Z,25216.00
2022-08-08T14:06:08.560Z,4856.00
2022-08-08T14:07:39.354Z,3988.00
2022-08-08T14:09:24.523Z,3752.00
2022-08-08T14:10:50.239Z,3608.00
2022-08-08T14:12:20.886Z,3648.00
2022-08-08T14:13:59.703Z,3644.00
2022-08-08T14:15:21.393Z,3532.00
2022-08-08T14:17:27.715Z,3384.00
2022-08-08T14:18:53.539Z,3376.00
2022-08-08T14:20:56.713Z,3360.00
2022-08-08T14:22:21.266Z,3168.00
2022-08-08T14:29:00.760Z,2776.00
2022-08-08T14:30:30.790Z,2600.00
2022-08-08T14:32:59.916Z,2476.00
2022-08-08T14:35:35.671Z,2416.00
2022-08-08T14:37:00.177Z,2388.00
2022-08-08T14:39:48.259Z,2308.00
2022-08-08T14:41:53.724Z,2308.00
2022-08-08T14:44:02.248Z,2208.00
2022-08-08T14:45:46.885Z,2604.00
2022-08-08T14:47:01.520Z,2172.00
2022-08-08T14:48:38.752Z,2100.00
2022-08-08T14:50:10.741Z,2040.00
2022-08-08T14:51:52.062Z,2020.00
2022-08-08T14:53:14.618Z,2000.00
2022-08-08T14:54:55.515Z,1904.00
2022-08-08T14:56:25.101Z,1964.00
2022-08-08T14:58:03.287Z,1896.00
2022-08-08T14:59:44.589Z,1828.00
2022-08-08T15:00:56.454Z,1788.00
2022-08-08T15:02:30.617Z,1832.00
2022-08-08T15:04:08.431Z,1812.00
2022-08-08T15:05:43.318Z,1792.00
2022-08-08T15:06:57.692Z,1772.00
2022-08-08T15:08:35.433Z,1772.00
2022-08-08T15:09:58.783Z,1768.00
2022-08-08T15:12:29.305Z,1752.00
2022-08-08T15:14:01.179Z,1748.00
2022-08-08T15:16:12.214Z,1720.00
2022-08-08T15:17:39.955Z,1692.00
2022-08-08T15:19:38.870Z,1668.00
2022-08-08T15:21:42.817Z,1656.00
2022-08-08T15:23:08.179Z,1628.00
2022-08-08T15:25:17.628Z,1580.00
2022-08-08T15:26:39.311Z,1572.00
2022-08-08T15:28:33.993Z,1576.00
2022-08-08T15:30:12.670Z,1596.00
2022-08-08T15:32:02.555Z,1596.00
2022-08-08T15:34:00.076Z,1504.00
2022-08-08T15:35:11.250Z,1524.00
2022-08-08T15:36:40.934Z,1516.00
2022-08-08T15:38:13.454Z,1520.00
2022-08-08T15:39:40.183Z,1620.00
2022-08-08T15:41:09.698Z,1692.00
2022-08-08T15:42:39.674Z,1596.00
2022-08-08T15:46:37.672Z,1976.00
2022-08-08T15:50:13.396Z,1388.00
2022-08-08T15:52:06.575Z,1408.00
2022-08-08T15:54:05.800Z,1516.00
2022-08-08T15:56:09.725Z,1624.00
2022-08-08T15:57:40.141Z,1544.00
2022-08-08T15:59:06.669Z,1424.00
2022-08-08T16:00:36.363Z,1368.00
2022-08-08T16:02:36.139Z,1356.00
2022-08-08T16:04:34.750Z,1328.00
2022-08-08T16:06:34.535Z,1416.00
2022-08-08T16:13:05.368Z,1308.00
2022-08-08T16:13:11.974Z,1328.00
2022-08-08T16:13:21.331Z,1348.00
2022-08-08T16:15:59.337Z,1272.00
2022-08-08T16:18:14.895Z,1252.00
2022-08-08T16:20:43.740Z,1196.00
2022-08-08T16:22:30.340Z,1204.00
2022-08-08T16:23:43.884Z,1140.00
2022-08-08T16:27:41.677Z,1156.00
2022-08-08T16:30:39.944Z,1116.00
2022-08-08T16:32:13.028Z,1116.00
2022-08-08T16:34:40.576Z,1104.00
2022-08-08T16:37:09.537Z,1136.00
2022-08-08T16:40:00.872Z,1124.00
2022-08-08T16:41:39.712Z,1120.00
2022-08-08T16:44:12.496Z,1152.00
2022-08-08T16:46:43.021Z,1180.00
2022-08-08T16:47:09.360Z,1184.00
2022-08-08T16:49:09.353Z,1164.00
2022-08-08T16:55:02.368Z,1096.00
2022-08-08T16:55:03.013Z,1136.00
2022-08-08T16:56:37.388Z,1020.00
2022-08-08T16:59:50.926Z,968.00
2022-08-08T17:01:09.172Z,936.00
2022-08-08T17:03:07.073Z,892.00
2022-08-08T17:04:36.632Z,872.00
2022-08-08T17:06:06.730Z,848.00
2022-08-08T17:07:37.750Z,832.00
2022-08-08T17:10:06.830Z,828.00
2022-08-08T17:14:03.755Z,792.00
2022-08-08T17:16:02.884Z,780.00
2022-08-08T17:18:01.561Z,768.00
2022-08-08T17:19:03.280Z,756.00
2022-08-08T17:20:32.948Z,744.00
2022-08-08T17:22:42.211Z,720.00
2022-08-08T17:24:34.965Z,708.00
2022-08-08T17:26:05.236Z,696.00
2022-08-08T17:28:35.168Z,688.00
2022-08-08T17:31:39.470Z,672.00
2022-08-08T17:34:53.451Z,648.00
2022-08-08T17:35:54.625Z,632.00
2022-08-08T17:37:34.543Z,624.00
2022-08-08T17:41:38.899Z,604.00
2022-08-08T17:43:03.839Z,548.00
2022-08-08T17:44:33.312Z,568.00
2022-08-08T17:46:02.865Z,556.00
2022-08-08T17:47:40.099Z,548.00
2022-08-08T17:49:42.509Z,528.00
2022-08-08T17:51:33.951Z,512.00
2022-08-08T17:53:43.302Z,500.00
2022-08-08T17:55:05.374Z,484.00
2022-08-08T17:56:34.756Z,476.00
2022-08-08T17:58:04.623Z,460.00
2022-08-08T17:59:36.389Z,456.00
2022-08-08T18:01:43.694Z,440.00
2022-08-08T18:04:34.278Z,416.00
2022-08-08T18:06:33.986Z,404.00
2022-08-08T18:08:04.702Z,396.00
2022-08-08T18:10:03.740Z,320.00
2022-08-08T18:12:03.097Z,360.00
2022-08-08T18:14:33.620Z,340.00
2022-08-08T18:16:32.856Z,324.00
2022-08-08T18:18:09.093Z,312.00
2022-08-08T18:19:32.893Z,296.00
2022-08-08T18:21:59.349Z,280.00
2022-08-08T18:23:04.296Z,268.00
2022-08-08T18:24:33.986Z,256.00
2022-08-08T18:31:06.707Z,196.00
2022-08-08T18:32:34.621Z,180.00
2022-08-08T18:34:11.310Z,168.00
2022-08-08T18:35:41.697Z,156.00
2022-08-08T18:37:08.409Z,140.00
2022-08-08T18:43:16.479Z,92.00
2022-08-08T18:44:35.905Z,84.00
2022-08-08T18:46:55.506Z,76.00
2022-08-08T18:48:07.780Z,60.00
2022-08-08T18:50:04.105Z,52.00
2022-08-08T18:52:32.985Z,40.00
2022-08-08T18:54:10.833Z,32.00
2022-08-08T18:56:03.357Z,24.00
2022-08-08T18:58:02.667Z,20.00
2022-08-08T18:59:34.474Z,16.00
2022-08-08T19:01:03.028Z,12.00
2022-08-08T19:04:11.043Z,8.00
2022-08-08T19:06:32.662Z,8.00
2022-08-08T19:08:32.084Z,4.00
2022-08-08T19:10:15.458Z,4.00
2022-08-08T19:12:01.859Z,0.00
2022-08-08T19:13:53.014Z,4.00
2022-08-08T19:15:02.690Z,0.00
2022-08-08T19:16:32.431Z,4.00
2022-08-08T19:18:32.461Z,0.00
2022-08-08T19:20:03.189Z,0.00
2022-08-08T19:23:30.352Z,0.00
2022-08-08T19:25:59.812Z,0.00
2022-08-08T19:26:31.537Z,0.00
2022-08-08T19:28:00.956Z,0.00
2022-08-08T19:29:30.624Z,0.00
2022-08-08T19:31:03.778Z,0.00
2022-08-08T19:32:31.022Z,0.00
2022-08-08T19:34:38.546Z,0.00
2022-08-08T19:36:30.947Z,0.00
2022-08-08T19:38:59.292Z,0.00
2022-08-08T19:40:31.097Z,0.00
2022-08-08T19:41:59.516Z,0.00
2022-08-08T19:44:03.304Z,0.00
2022-08-08T19:45:58.506Z,0.00
2022-08-08T19:47:33.872Z,0.00
2022-08-08T19:48:59.559Z,0.00
2022-08-08T19:50:59.281Z,0.00
2022-08-08T19:54:29.239Z,0.00
2022-08-08T19:55:58.797Z,0.00
2022-08-08T19:57:28.676Z,0.00
2022-08-08T19:58:58.234Z,0.00
2022-08-08T20:01:50.204Z,0.00
2022-08-08T20:04:02.162Z,0.00
2022-08-08T20:06:13.697Z,0.00
2022-08-08T20:07:03.643Z,0.00
2022-08-08T20:08:31.901Z,0.00
2022-08-08T20:09:59.311Z,0.00
2022-08-08T20:11:28.684Z,0.00
2022-08-08T20:14:32.645Z,0.00
2022-08-08T20:16:00.309Z,0.00
2022-08-08T20:18:58.365Z,0.00
2022-08-08T20:22:31.043Z,0.00
2022-08-08T20:24:27.265Z,0.00
2022-08-08T20:25:56.998Z,0.00
2022-08-08T20:27:26.457Z,0.00
2022-08-08T20:29:26.713Z,0.00
2022-08-08T20:30:59.974Z,0.00
2022-08-08T20:38:29.246Z,0.00
2022-08-08T20:42:56.651Z,0.00
2022-08-08T20:44:26.412Z,0.00
2022-08-08T20:46:25.981Z,0.00
2022-08-08T20:47:57.758Z,0.00
2022-08-08T20:50:55.426Z,0.00
2022-08-08T20:52:54.721Z,0.00
2022-08-08T20:55:26.070Z,0.00
2022-08-08T20:57:04.401Z,0.00
2022-08-08T20:58:24.701Z,0.00
2022-08-08T20:59:54.249Z,0.00
2022-08-08T21:01:23.897Z,0.00
2022-08-08T21:02:54.443Z,0.00
2022-08-08T21:04:53.959Z,0.00
2022-08-08T21:06:23.523Z,0.00
2022-08-08T21:08:33.739Z,0.00
2022-08-08T21:10:28.284Z,0.00
2022-08-08T21:12:33.243Z,0.00
2022-08-08T21:14:56.610Z,0.00
2022-08-08T21:19:10.889Z,0.00
2022-08-08T21:20:40.321Z,0.00
2022-08-08T21:22:09.821Z,0.00
2022-08-08T21:24:04.391Z,0.00
2022-08-08T21:25:40.975Z,0.00
2022-08-08T21:27:15.577Z,0.00
2022-08-08T21:28:40.920Z,0.00
2022-08-08T21:30:19.011Z,0.00
2022-08-08T21:31:53.058Z,0.00
2022-08-08T21:33:12.891Z,0.00
2022-08-08T21:34:42.712Z,0.00
2022-08-08T21:36:42.894Z,0.00
2022-08-08T21:41:43.299Z,0.00
2022-08-08T21:45:44.905Z,0.00
2022-08-08T21:48:08.234Z,0.00
2022-08-08T21:48:19.907Z,0.00
2022-08-08T21:49:42.340Z,0.00
2022-08-08T21:54:31.443Z,0.00
2022-08-08T21:54:33.262Z,0.00
2022-08-08T21:56:19.065Z,0.00
2022-08-08T21:57:12.881Z,0.00
2022-08-08T21:59:12.712Z,0.00
2022-08-08T22:00:42.307Z,0.00
2022-08-08T22:02:11.962Z,0.00
2022-08-08T22:04:11.575Z,0.00
2022-08-08T22:05:41.473Z,0.00
2022-08-08T22:07:10.752Z,0.00
2022-08-08T22:08:41.954Z,0.00
2022-08-08T22:11:59.326Z,0.00
2022-08-08T22:12:40.194Z,0.00
2022-08-08T22:16:38.070Z,0.00
2022-08-08T22:18:12.244Z,0.00
2022-08-08T22:20:12.240Z,0.00
2022-08-08T22:21:14.069Z,0.00
2022-08-08T22:26:27.856Z,0.00
2022-08-08T22:29:05.058Z,0.00
2022-08-08T22:40:31.852Z,0.00
2022-08-08T22:42:59.821Z,0.00
2022-08-08T22:45:58.835Z,0.00
2022-08-08T22:47:34.258Z,0.00
2022-08-08T22:49:30.216Z,0.00
2022-08-08T22:51:30.025Z,0.00
2022-08-08T22:54:31.460Z,0.00
2022-08-08T22:56:01.622Z,0.00
2022-08-08T22:57:30.302Z,0.00
2022-08-08T22:59:01.059Z,0.00
2022-08-08T23:01:00.730Z,0.00
2022-08-08T23:04:32.065Z,0.00
2022-08-08T23:06:00.042Z,0.00
2022-08-08T23:07:58.817Z,0.00
2022-08-08T23:09:30.636Z,0.00
2022-08-08T23:11:06.421Z,0.00
2022-08-08T23:12:58.796Z,0.00
2022-08-08T23:14:59.871Z,0.00
2022-08-08T23:16:41.825Z,0.00
2022-08-08T23:19:00.037Z,0.00
2022-08-08T23:20:29.100Z,0.00
2022-08-08T23:27:39.472Z,0.00
2022-08-08T23:43:21.095Z,0.00
2022-08-08T23:49:03.213Z,0.00
2022-08-08T23:49:07.121Z,0.00
2022-08-08T23:49:23.127Z,0.00
2022-08-08T23:52:23.275Z,0.00
2022-08-08T23:54:05.633Z,0.00
2022-08-08T23:55:53.829Z,0.00
2022-08-08T23:57:53.644Z,0.00
2022-08-08T23:59:23.162Z,0.00
